createdAt,value
2019-05-25T00:00:04.688Z,45.83
2019-05-25T00:01:54.050Z,46.31
2019-05-25T00:02:34.476Z,46.12
2019-05-25T00:03:14.919Z,46.6
2019-05-25T00:03:55.851Z,46.7
2019-05-25T00:04:36.286Z,46.7
2019-05-25T00:05:16.859Z,45.93
2019-05-25T00:05:57.318Z,46.41
2019-05-25T00:06:37.885Z,46.03
2019-05-25T00:07:18.207Z,46.6
2019-05-25T00:08:39.162Z,47.08
2019-05-25T00:09:19.641Z,46.7
2019-05-25T00:10:00.046Z,47.46
2019-05-25T00:10:40.802Z,46.7
2019-05-25T00:11:22.155Z,46.98
2019-05-25T00:12:02.711Z,46.7
2019-05-25T00:12:43.058Z,46.89
2019-05-25T00:13:23.583Z,47.17
2019-05-25T00:14:03.993Z,47.46
2019-05-25T00:14:44.480Z,47.94
2019-05-25T00:18:44.182Z,47.92
2019-05-25T00:20:34.575Z,48.11
2019-05-25T00:21:24.570Z,47.92
2019-05-25T00:22:02.751Z,48.21
2019-05-25T00:22:43.216Z,48.21
2019-05-25T00:23:23.846Z,48.3
2019-05-25T00:24:12.008Z,48.49
2019-05-25T00:24:44.814Z,48.69
2019-05-25T00:25:25.576Z,48.21
2019-05-25T00:26:06.237Z,48.78
2019-05-25T00:26:46.643Z,48.59
2019-05-25T00:27:27.144Z,48.49
2019-05-25T00:28:07.740Z,48.49
2019-05-25T00:28:48.348Z,48.4
2019-05-25T00:29:28.658Z,48.3
2019-05-25T00:30:09.190Z,48.11
2019-05-25T00:30:49.989Z,48.59
2019-05-25T00:31:30.608Z,48.59
2019-05-25T00:32:10.973Z,48.49
2019-05-25T00:32:51.469Z,48.4
2019-05-25T00:33:31.839Z,48.02
2019-05-25T00:34:12.237Z,48.78
2019-05-25T00:34:52.734Z,48.88
2019-05-25T00:36:13.635Z,49.07
2019-05-25T00:36:54.242Z,49.74
2019-05-25T00:37:34.672Z,49.05
2019-05-25T00:38:15.118Z,48.78
2019-05-25T00:38:55.559Z,48.97
2019-05-25T00:39:35.927Z,49.36
2019-05-25T00:40:16.377Z,49.65
2019-05-25T00:40:56.851Z,49.74
2019-05-25T00:41:37.330Z,49.55
2019-05-25T00:42:17.759Z,49.14
2019-05-25T00:42:58.204Z,49.24
2019-05-25T00:43:38.631Z,49.52
2019-05-25T00:44:19.046Z,50.51
2019-05-25T00:44:59.443Z,50.22
2019-05-25T00:46:20.240Z,50.29
2019-05-25T00:47:00.655Z,50.51
2019-05-25T00:47:41.097Z,49.74
2019-05-25T00:48:21.474Z,49.65
2019-05-25T00:49:01.889Z,49.71
2019-05-25T00:50:58.889Z,50.77
2019-05-25T00:51:47.774Z,50.6
2019-05-25T00:52:28.243Z,50.58
2019-05-25T00:53:08.900Z,50.51
2019-05-25T00:53:49.663Z,50.1
2019-05-25T00:54:30.025Z,50.32
2019-05-25T00:55:10.718Z,50.67
2019-05-25T00:56:31.466Z,50.67
2019-05-25T00:57:11.923Z,50.7
2019-05-25T00:57:52.591Z,50.77
2019-05-25T00:58:33.043Z,50.48
2019-05-25T00:59:14.413Z,50.38
2019-05-25T00:59:54.796Z,50.77
2019-05-25T01:00:35.194Z,51.25
2019-05-25T01:01:15.634Z,50.77
2019-05-25T01:01:56.041Z,50.77
2019-05-25T01:02:36.625Z,50.77
2019-05-25T01:03:17.023Z,51.15
2019-05-25T01:05:15.135Z,51.82
2019-05-25T01:05:55.582Z,51.82
2019-05-25T01:06:36.069Z,51.06
2019-05-25T01:07:16.514Z,51.06
2019-05-25T01:07:56.864Z,51.73
2019-05-25T01:08:37.284Z,52.3
2019-05-25T01:09:17.745Z,52.01
2019-05-25T01:09:58.118Z,51.73
2019-05-25T01:10:38.604Z,51.44
2019-05-25T01:11:59.497Z,52.01
2019-05-25T01:12:40.290Z,51.92
2019-05-25T01:13:20.666Z,52.4
2019-05-25T01:14:01.007Z,52.59
2019-05-25T01:14:41.627Z,52.78
2019-05-25T01:15:22.069Z,52.3
2019-05-25T01:16:02.421Z,52.3
2019-05-25T01:16:42.904Z,52.3
2019-05-25T01:17:23.306Z,52.5
2019-05-25T01:18:03.739Z,52.5
2019-05-25T01:19:24.576Z,52.2
2019-05-25T01:20:05.083Z,52.78
2019-05-25T01:20:45.484Z,52.97
2019-05-25T01:22:06.331Z,52.97
2019-05-25T01:22:46.871Z,52.78
2019-05-25T01:23:27.341Z,53.07
2019-05-25T01:24:07.790Z,53.36
2019-05-25T01:24:48.988Z,53.16
2019-05-25T01:25:29.413Z,53.07
2019-05-25T01:26:09.781Z,53.26
2019-05-25T01:26:50.198Z,53.07
2019-05-25T01:27:30.609Z,53.36
2019-05-25T01:28:11.039Z,53.45
2019-05-25T01:28:51.431Z,53.07
2019-05-25T01:29:31.886Z,52.78
2019-05-25T01:30:12.291Z,52.78
2019-05-25T01:30:52.706Z,52.78
2019-05-25T01:31:33.105Z,53.04
2019-05-25T01:32:13.489Z,52.85
2019-05-25T01:32:53.879Z,53.42
2019-05-25T01:33:34.326Z,53.42
2019-05-25T01:35:52.314Z,53.62
2019-05-25T01:36:33.185Z,53.33
2019-05-25T01:37:13.596Z,53.42
2019-05-25T01:37:53.977Z,53.71
2019-05-25T01:38:34.367Z,53.81
2019-05-25T01:39:14.868Z,53.91
2019-05-25T01:39:55.210Z,54.48
2019-05-25T01:40:35.624Z,53.91
2019-05-25T01:41:56.454Z,53.91
2019-05-25T01:42:36.867Z,54.1
2019-05-25T01:43:17.309Z,53.62
2019-05-25T01:43:57.786Z,54.57
2019-05-25T01:44:38.190Z,54.19
2019-05-25T01:45:18.619Z,54.19
2019-05-25T01:45:59.076Z,54.38
2019-05-25T01:46:39.488Z,54.45
2019-05-25T01:47:19.928Z,54.26
2019-05-25T01:48:00.353Z,54.55
2019-05-25T01:48:40.753Z,54.26
2019-05-25T01:49:21.157Z,54.45
2019-05-25T01:50:01.554Z,54.64
2019-05-25T01:50:41.987Z,54.36
2019-05-25T01:52:34.904Z,55.41
2019-05-25T01:53:15.417Z,55.6
2019-05-25T01:53:55.887Z,55.69
2019-05-25T01:54:36.405Z,55.31
2019-05-25T01:55:17.322Z,55.31
2019-05-25T01:55:57.752Z,55.6
2019-05-25T01:56:37.937Z,56.05
2019-05-25T01:57:18.593Z,56.24
2019-05-25T01:58:00.152Z,56.53
2019-05-25T01:58:40.865Z,56.34
2019-05-25T01:59:21.228Z,56.91
2019-05-25T02:00:01.697Z,57.1
2019-05-25T02:00:42.150Z,56.91
2019-05-25T02:01:22.634Z,57.48
2019-05-25T02:02:03.885Z,57.48
2019-05-25T02:02:44.578Z,57.77
2019-05-25T02:03:26.033Z,57.77
2019-05-25T02:04:06.214Z,57.68
2019-05-25T02:04:46.917Z,57.97
2019-05-25T02:05:27.412Z,57.58
2019-05-25T02:09:04.245Z,58.54
2019-05-25T02:09:45.641Z,58.63
2019-05-25T02:10:26.109Z,58.34
2019-05-25T02:11:06.484Z,58.15
2019-05-25T02:11:46.944Z,58.63
2019-05-25T02:12:27.389Z,58.63
2019-05-25T02:13:07.821Z,58.34
2019-05-25T02:13:48.223Z,58.54
2019-05-25T02:15:41.887Z,57.97
2019-05-25T02:16:22.482Z,58.34
2019-05-25T02:17:02.920Z,58.54
2019-05-25T02:17:43.475Z,58.73
2019-05-25T02:19:04.221Z,58.54
2019-05-25T02:19:44.650Z,59.01
2019-05-25T02:20:25.070Z,58.92
2019-05-25T02:22:39.949Z,58.44
2019-05-25T02:25:16.754Z,59.3
2019-05-25T02:27:19.914Z,59.59
2019-05-25T02:28:01.331Z,59.78
2019-05-25T02:28:41.730Z,60.06
2019-05-25T02:29:22.555Z,59.78
2019-05-25T02:30:05.396Z,59.97
2019-05-25T02:30:45.503Z,59.49
2019-05-25T02:31:25.989Z,59.88
2019-05-25T02:32:06.412Z,59.59
2019-05-25T02:32:46.760Z,59.88
2019-05-25T02:33:27.141Z,59.49
2019-05-25T02:34:07.535Z,58.92
2019-05-25T02:34:47.991Z,59.4
2019-05-25T02:35:28.395Z,59.49
2019-05-25T02:37:26.470Z,59.97
2019-05-25T02:38:06.804Z,60.35
2019-05-25T02:38:47.242Z,60.16
2019-05-25T02:39:27.703Z,60.55
2019-05-25T02:40:08.276Z,59.88
2019-05-25T02:41:29.098Z,60.26
2019-05-25T02:42:09.414Z,60.64
2019-05-25T02:42:49.817Z,60.35
2019-05-25T02:44:10.808Z,60.55
2019-05-25T02:44:51.270Z,60.16
2019-05-25T02:45:31.739Z,61.02
2019-05-25T02:46:12.148Z,60.55
2019-05-25T02:46:52.601Z,60.64
2019-05-25T02:47:33.056Z,60.64
2019-05-25T02:48:54.002Z,60.45
2019-05-25T02:49:34.534Z,60.64
2019-05-25T02:50:14.854Z,60.64
2019-05-25T02:50:55.335Z,60.55
2019-05-25T02:51:35.788Z,60.35
2019-05-25T02:52:16.242Z,60.35
2019-05-25T02:52:56.646Z,60.16
2019-05-25T02:53:37.096Z,60.45
2019-05-25T02:54:17.705Z,59.97
2019-05-25T02:54:58.301Z,60.06
2019-05-25T02:55:38.512Z,60.26
2019-05-25T02:56:19.151Z,60.45
2019-05-25T02:56:59.490Z,60.55
2019-05-25T02:57:40.074Z,60.35
2019-05-25T02:59:01.065Z,60.83
2019-05-25T02:59:41.578Z,61.22
2019-05-25T03:00:22.011Z,61.02
2019-05-25T03:01:02.569Z,61.02
2019-05-25T03:01:43.197Z,60.83
2019-05-25T03:02:23.625Z,61.02
2019-05-25T03:03:04.144Z,60.45
2019-05-25T03:03:45.139Z,60.35
2019-05-25T03:04:26.097Z,61.02
2019-05-25T03:05:06.934Z,60.9
2019-05-25T03:06:27.994Z,61.28
2019-05-25T03:07:08.657Z,61.57
2019-05-25T03:07:49.297Z,61.95
2019-05-25T03:08:29.843Z,61.85
2019-05-25T03:09:10.292Z,61.95
2019-05-25T03:09:50.685Z,62.33
2019-05-25T03:10:31.087Z,62.9
2019-05-25T03:12:25.057Z,62.71
2019-05-25T03:13:06.756Z,63
2019-05-25T03:13:47.149Z,62.71
2019-05-25T03:14:27.617Z,62.9
2019-05-25T03:15:08.013Z,62.87
2019-05-25T03:16:29.022Z,62.87
2019-05-25T03:17:09.528Z,63.35
2019-05-25T03:17:50.213Z,64.02
2019-05-25T03:18:30.557Z,64.31
2019-05-25T03:19:10.929Z,64.5
2019-05-25T03:19:51.395Z,64.78
2019-05-25T03:20:31.930Z,65.07
2019-05-25T03:21:12.387Z,64.98
2019-05-25T03:21:53.154Z,65.64
2019-05-25T03:22:33.401Z,65.14
2019-05-25T03:23:13.841Z,65.52
2019-05-25T03:23:54.333Z,66.19
2019-05-25T03:24:34.775Z,66.28
2019-05-25T03:25:15.149Z,66.47
2019-05-25T03:25:55.639Z,67.24
2019-05-25T03:26:36.050Z,66.85
2019-05-25T03:27:16.546Z,67.14
2019-05-25T03:27:57.117Z,67.81
2019-05-25T03:28:37.464Z,67.71
2019-05-25T03:29:17.937Z,68.1
2019-05-25T03:29:58.396Z,68
2019-05-25T03:31:19.269Z,68.73
2019-05-25T03:31:59.608Z,69.31
2019-05-25T03:32:40.044Z,70.01
2019-05-25T03:33:20.442Z,69.97
2019-05-25T03:34:00.893Z,70.58
2019-05-25T03:34:41.345Z,70.64
2019-05-25T03:35:22.187Z,70.83
2019-05-25T03:36:02.723Z,71.02
2019-05-25T03:36:43.094Z,71.44
2019-05-25T03:37:23.554Z,71.72
2019-05-25T03:39:21.521Z,71.25
2019-05-25T03:40:01.669Z,71.02
2019-05-25T03:40:42.077Z,71.41
2019-05-25T03:41:22.540Z,71.82
2019-05-25T03:42:03.048Z,71.88
2019-05-25T03:42:43.581Z,71.72
2019-05-25T03:43:23.892Z,72.17
2019-05-25T03:44:04.255Z,71.92
2019-05-25T03:44:44.654Z,72.01
2019-05-25T03:45:25.059Z,71.92
2019-05-25T03:46:05.644Z,72.11
2019-05-25T03:46:46.153Z,71.88
2019-05-25T03:47:26.633Z,71.88
2019-05-25T03:49:30.018Z,72.17
2019-05-25T03:50:15.791Z,72.36
2019-05-25T03:50:56.258Z,72.07
2019-05-25T03:51:36.659Z,72.17
2019-05-25T03:52:17.174Z,72.64
2019-05-25T03:53:38.020Z,72.39
2019-05-25T03:54:18.458Z,72.11
2019-05-25T03:55:01.142Z,71.98
2019-05-25T03:56:22.016Z,72.17
2019-05-25T03:57:02.434Z,72.17
2019-05-25T03:57:43.074Z,72.07
2019-05-25T03:58:23.614Z,72.64
2019-05-25T03:59:04.019Z,72.55
2019-05-25T03:59:44.390Z,72.55
2019-05-25T04:00:24.950Z,72.74
2019-05-25T04:01:05.400Z,73.03
2019-05-25T04:01:45.870Z,73.03
2019-05-25T04:02:26.280Z,73.03
2019-05-25T04:03:07.579Z,73.41
2019-05-25T04:03:47.911Z,73.12
2019-05-25T04:04:28.369Z,73.6
2019-05-25T04:05:08.851Z,73.5
2019-05-25T04:05:49.256Z,73.79
2019-05-25T04:06:29.666Z,73.88
2019-05-25T04:07:10.061Z,73.79
2019-05-25T04:07:50.540Z,73.79
2019-05-25T04:08:30.962Z,73.6
2019-05-25T04:09:11.333Z,74.11
2019-05-25T04:09:51.806Z,74.02
2019-05-25T04:11:12.683Z,73.32
2019-05-25T04:11:53.109Z,73.41
2019-05-25T04:12:33.487Z,73.44
2019-05-25T04:13:13.933Z,73.54
2019-05-25T04:13:54.663Z,73.35
2019-05-25T04:14:35.386Z,72.87
2019-05-25T04:15:15.822Z,72.3
2019-05-25T04:15:56.238Z,72.24
2019-05-25T04:16:36.853Z,71.38
2019-05-25T04:17:17.389Z,71.57
2019-05-25T04:17:57.884Z,71
2019-05-25T04:18:38.339Z,70.14
2019-05-25T04:19:19.920Z,70.04
2019-05-25T04:20:00.671Z,69.85
2019-05-25T04:21:21.359Z,68.93
2019-05-25T04:22:01.781Z,68.64
2019-05-25T04:24:15.769Z,68.26
2019-05-25T04:24:56.798Z,67.78
2019-05-25T04:25:37.172Z,67.78
2019-05-25T04:27:29.785Z,67.78
2019-05-25T05:07:48.590Z,49.72
2019-05-25T05:10:28.333Z,48.21
2019-05-25T05:11:08.542Z,48.21
2019-05-25T05:11:48.974Z,47.44
2019-05-25T05:12:29.560Z,46.86
2019-05-25T05:13:10.180Z,46.88
2019-05-25T05:13:50.670Z,46.11
2019-05-25T05:14:30.991Z,46.4
2019-05-25T05:15:11.821Z,45.75
2019-05-25T05:15:52.038Z,45.56
2019-05-25T05:16:32.519Z,45.65
2019-05-25T05:17:12.918Z,45.68
2019-05-25T05:17:53.274Z,45
2019-05-25T05:18:33.670Z,44.62
2019-05-25T05:19:14.009Z,44.32
2019-05-25T05:19:54.436Z,44.42
2019-05-25T05:20:34.790Z,43.96
2019-05-25T05:21:15.211Z,43.77
2019-05-25T05:21:55.652Z,43.29
2019-05-25T05:22:36.022Z,42.9
2019-05-25T05:23:16.422Z,42.93
2019-05-25T05:23:56.819Z,42.73
2019-05-25T05:24:37.232Z,42.44
2019-05-25T05:25:58.035Z,42.36
2019-05-25T05:26:52.718Z,41.6
2019-05-25T05:27:18.811Z,41.6
2019-05-25T05:27:59.231Z,41.6
2019-05-25T05:28:39.647Z,41.02
2019-05-25T05:31:01.696Z,41.42
2019-05-25T05:31:46.392Z,41.42
2019-05-25T05:32:28.034Z,40.65
2019-05-25T05:33:07.620Z,41.35
2019-05-25T05:33:48.005Z,40.38
2019-05-25T05:34:28.594Z,40.67
2019-05-25T05:35:09.018Z,40.09
2019-05-25T05:35:49.408Z,39.92
2019-05-25T05:36:29.928Z,40.01
2019-05-25T05:37:10.349Z,39.82
2019-05-25T05:38:31.330Z,40.11
2019-05-25T05:39:11.755Z,39.43
2019-05-25T05:39:52.175Z,39.45
2019-05-25T05:40:33.135Z,39.45
2019-05-25T05:41:13.521Z,39.45
2019-05-25T05:41:53.968Z,39.26
2019-05-25T05:42:34.408Z,38.87
2019-05-25T05:43:15.395Z,38.97
2019-05-25T05:43:56.079Z,39.06
2019-05-25T05:44:36.615Z,39.06
2019-05-25T05:45:57.841Z,39.09
2019-05-25T05:46:38.653Z,38.99
2019-05-25T05:47:19.223Z,38.6
2019-05-25T05:47:59.665Z,38.6
2019-05-25T05:48:40.115Z,38.41
2019-05-25T05:49:20.544Z,38.41
2019-05-25T05:50:01.204Z,38.31
2019-05-25T05:50:41.807Z,38.21
2019-05-25T05:51:22.491Z,38.04
2019-05-25T05:52:03.962Z,38.04
2019-05-25T05:52:47.445Z,38.13
2019-05-25T05:53:30.212Z,37.85
2019-05-25T05:54:12.837Z,37.55
2019-05-25T05:54:53.301Z,37.65
2019-05-25T05:56:14.156Z,37.46
2019-05-25T05:57:09.146Z,37.38
2019-05-25T05:57:35.150Z,37.48
2019-05-25T05:58:15.600Z,36.9
2019-05-25T05:58:56.055Z,37.28
2019-05-25T05:59:36.811Z,36.91
2019-05-25T06:00:17.497Z,37.21
2019-05-25T06:00:57.849Z,36.43
2019-05-25T06:01:38.456Z,36.24
2019-05-25T06:02:18.895Z,36.24
2019-05-25T06:02:59.293Z,36.82
2019-05-25T06:03:39.715Z,37.38
2019-05-25T06:04:20.779Z,37.77
2019-05-25T06:05:02.554Z,37.87
2019-05-25T06:05:43.288Z,37.67
2019-05-25T06:06:23.412Z,38.23
2019-05-25T06:07:04.058Z,37.87
2019-05-25T06:07:44.813Z,38.06
2019-05-25T06:08:25.200Z,38.35
2019-05-25T06:09:05.703Z,38.15
2019-05-25T06:09:46.345Z,38.15
2019-05-25T06:10:26.875Z,38.06
2019-05-25T06:11:07.430Z,37.96
2019-05-25T06:11:53.553Z,38.06
2019-05-25T06:12:34.726Z,38.25
2019-05-25T06:13:15.189Z,38.13
2019-05-25T06:13:55.570Z,38.15
2019-05-25T06:14:41.608Z,38.15
2019-05-25T06:16:02.403Z,38.35
2019-05-25T06:16:42.834Z,38.43
2019-05-25T06:17:23.257Z,38.25
2019-05-25T06:18:44.166Z,38.15
2019-05-25T06:19:24.653Z,38.35
2019-05-25T06:20:05.280Z,38.25
2019-05-25T06:20:46.183Z,37.79
2019-05-25T06:21:26.550Z,37.59
2019-05-25T06:22:06.991Z,37.21
2019-05-25T06:23:28.277Z,36.83
2019-05-25T06:24:08.752Z,36.93
2019-05-25T06:24:50.127Z,37.03
2019-05-25T06:26:11.446Z,37.13
2019-05-25T06:26:51.844Z,37.23
2019-05-25T06:27:32.399Z,37.41
2019-05-25T06:28:13.242Z,37.21
2019-05-25T06:28:53.741Z,37.79
2019-05-25T06:29:34.535Z,38.07
2019-05-25T06:30:15.201Z,38.83
2019-05-25T06:30:55.790Z,39.22
2019-05-25T06:31:36.692Z,39.49
2019-05-25T06:32:17.650Z,39.69
2019-05-25T06:32:58.218Z,39.49
2019-05-25T06:33:38.967Z,40.25
2019-05-25T06:34:19.439Z,40.26
2019-05-25T06:35:00.184Z,40.44
2019-05-25T06:35:40.847Z,40.63
2019-05-25T06:36:21.677Z,41.09
2019-05-25T06:37:02.571Z,41.48
2019-05-25T06:37:43.054Z,41.67
2019-05-25T06:38:23.743Z,41.67
2019-05-25T06:39:04.550Z,42.04
2019-05-25T06:39:45.327Z,42.82
2019-05-25T06:40:26.267Z,42.82
2019-05-25T06:41:08.681Z,42.82
2019-05-25T06:41:49.032Z,42.99
2019-05-25T06:42:29.487Z,43.47
2019-05-25T06:43:10.299Z,43.76
2019-05-25T06:43:51.212Z,43.93
2019-05-25T06:44:31.579Z,44.51
2019-05-25T06:45:12.375Z,44.7
2019-05-25T06:45:53.687Z,44.51
2019-05-25T06:46:33.890Z,44.32
2019-05-25T06:47:14.712Z,44.53
2019-05-25T06:47:55.664Z,43.85
2019-05-25T06:48:36.588Z,43.66
2019-05-25T06:49:18.623Z,43.66
2019-05-25T06:49:59.158Z,43.85
2019-05-25T06:50:40.043Z,43.95
2019-05-25T06:55:17.617Z,43.76
2019-05-25T07:01:55.619Z,44.7
2019-05-25T07:02:35.781Z,45.18
2019-05-25T07:03:16.107Z,44.9
2019-05-25T07:03:56.726Z,45.18
2019-05-25T07:04:37.059Z,45
2019-05-25T07:05:17.358Z,45.07
2019-05-25T07:05:57.859Z,45.55
2019-05-25T07:06:41.696Z,45.84
2019-05-25T07:07:22.048Z,46.33
2019-05-25T07:08:02.506Z,46.71
2019-05-25T07:08:42.839Z,46.42
2019-05-25T07:09:23.345Z,46.42
2019-05-25T07:10:05.626Z,46.88
2019-05-25T07:10:45.996Z,47.45
2019-05-25T07:11:26.689Z,47.85
2019-05-25T07:12:06.816Z,47.85
2019-05-25T07:12:47.310Z,47.45
2019-05-25T07:13:28.540Z,47.94
2019-05-25T07:14:08.177Z,48.4
2019-05-25T07:14:50.941Z,48.4
2019-05-25T07:15:31.613Z,48.4
2019-05-25T07:16:12.031Z,48.42
2019-05-25T07:16:52.499Z,48.52
2019-05-25T07:17:32.949Z,48.69
2019-05-25T07:18:13.831Z,48.69
2019-05-25T07:18:55.776Z,48.59
2019-05-25T07:19:36.543Z,48.49
2019-05-25T07:20:17.670Z,48.69
2019-05-25T07:20:58.140Z,48.97
2019-05-25T07:21:38.530Z,49.27
2019-05-25T07:22:19.535Z,49.27
2019-05-25T07:31:51.426Z,48.23
2019-05-25T07:35:24.980Z,47.48
2019-05-25T07:36:07.440Z,47.65
2019-05-25T07:36:45.371Z,48.03
2019-05-25T07:37:25.780Z,48.03
2019-05-25T07:38:46.858Z,47.85
2019-05-25T07:39:27.118Z,48.25
2019-05-25T07:40:07.503Z,48.16
2019-05-25T07:40:47.903Z,48.06
2019-05-25T07:41:28.317Z,48.06
2019-05-25T07:42:08.701Z,47.58
2019-05-25T07:42:49.049Z,47.12
2019-05-25T07:43:29.444Z,46.92
2019-05-25T07:44:10.609Z,46.25
2019-05-25T07:44:50.395Z,46.66
2019-05-25T07:47:09.337Z,45.04
2019-05-25T07:47:49.613Z,45.23
2019-05-25T07:48:30.099Z,44.26
2019-05-25T07:49:10.401Z,44.09
2019-05-25T07:49:50.861Z,44.19
2019-05-25T07:51:11.572Z,43.8
2019-05-25T07:51:51.990Z,43.41
2019-05-25T07:52:32.510Z,42.96
2019-05-25T07:53:12.935Z,43.44
2019-05-25T07:53:53.354Z,43.15
2019-05-25T07:54:33.752Z,42.49
2019-05-25T07:55:14.170Z,41.72
2019-05-25T07:55:55.420Z,42.03
2019-05-25T07:56:35.812Z,41.35
2019-05-25T07:57:16.205Z,41.25
2019-05-25T07:57:57.392Z,40.67
2019-05-25T07:58:44.578Z,40.69
2019-05-25T07:59:24.854Z,40.4
2019-05-25T08:00:07.458Z,40.4
2019-05-25T08:00:48.705Z,40.48
2019-05-25T08:01:30.110Z,40.48
2019-05-25T08:02:10.480Z,41.35
2019-05-25T08:02:51.510Z,41.62
2019-05-25T08:03:31.915Z,41.33
2019-05-25T08:04:14.464Z,41.42
2019-05-25T08:04:54.829Z,41.42
2019-05-25T08:05:35.186Z,41.62
2019-05-25T08:06:15.594Z,41.6
2019-05-25T08:06:55.948Z,41.42
2019-05-25T08:07:36.342Z,41.52
2019-05-25T08:08:16.861Z,41.42
2019-05-25T08:08:57.254Z,41.06
2019-05-25T08:09:38.118Z,41.06
2019-05-25T08:10:18.775Z,41.06
2019-05-25T08:10:58.982Z,41.25
2019-05-25T08:11:39.340Z,40.75
2019-05-25T08:12:20.057Z,40.56
2019-05-25T08:13:00.217Z,41.33
2019-05-25T08:14:20.968Z,41.04
2019-05-25T08:15:01.343Z,40.94
2019-05-25T08:15:41.769Z,40.94
2019-05-25T08:16:26.308Z,40.86
2019-05-25T08:17:06.658Z,41.06
2019-05-25T08:17:47.085Z,41.33
2019-05-25T08:18:27.476Z,41.24
2019-05-25T08:19:08.175Z,41.04
2019-05-25T08:19:48.435Z,40.84
2019-05-25T08:20:28.846Z,40.63
2019-05-25T08:21:09.287Z,41.04
2019-05-25T08:22:30.070Z,41.52
2019-05-25T08:23:10.479Z,41.72
2019-05-25T08:23:50.865Z,41.62
2019-05-25T08:24:31.263Z,41.33
2019-05-25T08:25:11.719Z,40.84
2019-05-25T08:25:52.081Z,41.72
2019-05-25T08:26:32.463Z,41.04
2019-05-25T08:27:12.874Z,40.75
2019-05-25T08:27:53.282Z,40.26
2019-05-25T08:28:33.762Z,40.26
2019-05-25T08:29:14.170Z,40
2019-05-25T08:29:54.529Z,40.38
2019-05-25T08:30:34.872Z,39.51
2019-05-25T08:31:15.703Z,39.61
2019-05-25T08:31:56.340Z,39.34
2019-05-25T08:32:36.463Z,39.62
2019-05-25T08:33:17.566Z,39.61
2019-05-25T08:33:57.975Z,39.9
2019-05-25T08:34:38.627Z,40
2019-05-25T08:35:19.223Z,40.07
2019-05-25T08:35:59.714Z,40.19
2019-05-25T08:36:40.019Z,40.26
2019-05-25T08:37:20.620Z,40.07
2019-05-25T08:38:00.960Z,40.17
2019-05-25T08:38:41.383Z,40.65
2019-05-25T08:39:21.737Z,41.11
2019-05-25T08:40:02.172Z,40.84
2019-05-25T08:40:42.526Z,40.56
2019-05-25T08:41:22.908Z,40.17
2019-05-25T08:42:05.299Z,40.09
2019-05-25T08:42:45.625Z,39.88
2019-05-25T08:43:26.014Z,39.41
2019-05-25T08:44:06.449Z,38.83
2019-05-25T08:44:46.826Z,38.73
2019-05-25T08:45:27.224Z,38.95
2019-05-25T08:46:07.707Z,38.95
2019-05-25T08:46:48.069Z,38.76
2019-05-25T08:47:28.509Z,38.56
2019-05-25T08:48:09.050Z,39.04
2019-05-25T08:48:49.526Z,38.73
2019-05-25T08:50:10.212Z,39.03
2019-05-25T08:50:50.614Z,39.51
2019-05-25T08:51:31.108Z,39.03
2019-05-25T08:52:51.804Z,38.25
2019-05-25T08:53:40.950Z,38.45
2019-05-25T08:54:12.622Z,38.15
2019-05-25T08:54:53.007Z,38.46
2019-05-25T08:55:33.434Z,38.35
2019-05-25T08:56:13.868Z,38.06
2019-05-25T08:56:54.853Z,38.17
2019-05-25T08:57:35.594Z,38.07
2019-05-25T08:58:17.990Z,37.98
2019-05-25T08:58:58.414Z,38.27
2019-05-25T09:00:20.125Z,37.79
2019-05-25T09:01:01.380Z,37.88
2019-05-25T09:01:41.376Z,38.07
2019-05-25T09:02:21.775Z,38
2019-05-25T09:03:02.131Z,38.09
2019-05-25T09:03:42.567Z,37.71
2019-05-25T09:04:25.587Z,37.53
2019-05-25T09:05:03.377Z,36.95
2019-05-25T09:05:43.837Z,36.95
2019-05-25T09:06:24.478Z,36.68
2019-05-25T09:07:04.839Z,36.38
2019-05-25T09:07:45.248Z,36
2019-05-25T09:08:25.632Z,35.9
2019-05-25T09:09:06.022Z,35.72
2019-05-25T09:09:46.524Z,35.53
2019-05-25T09:10:26.924Z,35.53
2019-05-25T09:11:07.426Z,35.05
2019-05-25T09:11:48.740Z,35.43
2019-05-25T09:12:31.051Z,35.16
2019-05-25T09:13:11.483Z,34.46
2019-05-25T09:13:52.097Z,34.66
2019-05-25T09:14:32.234Z,35.43
2019-05-25T09:15:13.694Z,35.05
2019-05-25T09:15:54.215Z,35.14
2019-05-25T09:16:34.609Z,35.14
2019-05-25T09:17:15.007Z,35.63
2019-05-25T09:17:55.410Z,35.63
2019-05-25T09:18:35.799Z,35.05
2019-05-25T09:19:16.216Z,35.63
2019-05-25T09:19:56.624Z,35.43
2019-05-25T09:20:37.032Z,35.05
2019-05-25T09:21:17.421Z,34.75
2019-05-25T09:22:02.326Z,34.97
2019-05-25T09:22:38.235Z,34.38
2019-05-25T09:23:18.658Z,34.38
2019-05-25T09:23:59.095Z,34.77
2019-05-25T09:24:39.460Z,34.77
2019-05-25T09:25:20.104Z,34.77
2019-05-25T09:26:00.457Z,34.19
2019-05-25T09:26:40.852Z,33.91
2019-05-25T09:27:21.264Z,33.81
2019-05-25T09:28:01.690Z,33.43
2019-05-25T09:28:42.050Z,33.33
2019-05-25T09:29:24.891Z,33.64
2019-05-25T09:30:05.391Z,33.34
2019-05-25T09:30:45.693Z,33.43
2019-05-25T09:31:26.724Z,33.34
2019-05-25T09:32:07.307Z,33.15
2019-05-25T09:32:48.322Z,32.86
2019-05-25T09:33:28.549Z,32.28
2019-05-25T09:34:08.969Z,31.88
2019-05-25T09:34:49.354Z,32.1
2019-05-25T09:35:29.731Z,31.81
2019-05-25T09:36:10.142Z,31.41
2019-05-25T09:36:50.520Z,31.73
2019-05-25T09:37:31.026Z,31.53
2019-05-25T09:38:11.429Z,31.45
2019-05-25T09:38:51.929Z,30.77
2019-05-25T09:39:32.296Z,30.28
2019-05-25T09:40:13.317Z,30.18
2019-05-25T09:40:53.481Z,29.99
2019-05-25T09:41:33.853Z,29.89
2019-05-25T09:42:14.232Z,29.71
2019-05-25T09:42:54.628Z,29.91
2019-05-25T09:43:34.986Z,30.1
2019-05-25T09:44:15.535Z,30.1
2019-05-25T09:44:55.967Z,30.1
2019-05-25T09:45:36.313Z,30.1
2019-05-25T09:46:16.760Z,29.72
2019-05-25T09:46:57.914Z,29.33
2019-05-25T09:47:38.796Z,29.82
2019-05-25T09:48:19.319Z,30.1
2019-05-25T09:49:00.906Z,30.49
2019-05-25T09:49:40.935Z,30.49
2019-05-25T09:51:02.019Z,30.38
2019-05-25T09:51:42.285Z,30.58
2019-05-25T09:52:22.735Z,30.68
2019-05-25T09:53:44.011Z,30.58
2019-05-25T09:54:25.300Z,30.39
2019-05-25T09:55:15.618Z,30.41
2019-05-25T09:55:56.085Z,30.21
2019-05-25T09:56:36.519Z,30.21
2019-05-25T09:57:16.970Z,29.54
2019-05-25T09:57:57.600Z,29.33
2019-05-25T09:58:38.005Z,29.35
2019-05-25T09:59:20.870Z,29.15
2019-05-25T10:00:02.135Z,29.06
2019-05-25T10:01:22.867Z,29.07
2019-05-25T10:02:03.325Z,29.15
2019-05-25T10:02:44.029Z,29.07
2019-05-25T10:03:24.647Z,29.17
2019-05-25T10:04:05.077Z,28.58
2019-05-25T10:04:45.450Z,28.58
2019-05-25T10:05:25.897Z,28.19
2019-05-25T10:06:11.247Z,28
2019-05-25T10:06:48.434Z,28
2019-05-25T10:07:28.842Z,28.19
2019-05-25T10:08:09.213Z,28.09
2019-05-25T10:08:49.777Z,28.19
2019-05-25T10:09:30.176Z,27.81
2019-05-25T10:10:10.606Z,28.09
2019-05-25T10:11:33.069Z,28.39
2019-05-25T10:12:16.101Z,28.29
2019-05-25T10:12:54.044Z,28.57
2019-05-25T10:13:34.342Z,28.47
2019-05-25T10:14:14.670Z,28.94
2019-05-25T10:14:55.057Z,29.04
2019-05-25T10:15:35.889Z,29.14
2019-05-25T10:16:18.135Z,29.53
2019-05-25T10:17:01.199Z,29.61
2019-05-25T10:19:14.840Z,29.61
2019-05-25T10:19:55.263Z,29.69
2019-05-25T10:20:35.773Z,29.69
2019-05-25T10:21:16.098Z,30.28
2019-05-25T10:21:59.319Z,30.18
2019-05-25T10:22:37.007Z,30.18
2019-05-25T10:23:17.427Z,30.08
2019-05-25T10:24:01.565Z,29.69
2019-05-25T10:24:41.921Z,29.52
2019-05-25T10:25:22.266Z,29.69
2019-05-25T10:26:02.686Z,29.99
2019-05-25T10:26:43.137Z,30.08
2019-05-25T10:27:23.506Z,30.08
2019-05-25T10:28:03.868Z,29.79
2019-05-25T10:28:44.255Z,29.61
2019-05-25T11:12:19.269Z,30.28
2019-05-25T11:13:00.090Z,30.57
2019-05-25T11:13:40.481Z,30.58
2019-05-25T11:14:20.906Z,29.91
2019-05-25T11:15:01.300Z,29.42
2019-05-25T11:16:22.118Z,28.26
2019-05-25T11:17:02.523Z,28.45
2019-05-25T11:17:42.942Z,28.18
2019-05-25T11:19:03.859Z,28.08
2019-05-25T11:19:44.174Z,27.98
2019-05-25T11:20:24.573Z,27.7
2019-05-25T11:21:05.037Z,27.41
2019-05-25T11:21:45.355Z,27.62
2019-05-25T11:22:25.903Z,27.52
2019-05-25T11:23:06.296Z,26.93
2019-05-25T11:23:46.643Z,26.76
2019-05-25T11:24:27.082Z,26.95
2019-05-25T11:25:07.476Z,27.52
2019-05-25T11:25:47.859Z,27.72
2019-05-25T11:26:28.510Z,27.13
2019-05-25T11:27:09.033Z,26.66
2019-05-25T11:27:49.346Z,26.56
2019-05-25T11:28:29.743Z,26.95
2019-05-25T11:29:10.129Z,27.25
2019-05-25T11:29:50.671Z,27.16
2019-05-25T11:30:30.931Z,27.16
2019-05-25T11:31:11.314Z,26.87
2019-05-25T11:31:56.294Z,26.39